Time;durP1;ratioP1;P1;durP2;ratioP2;P2;SDS_P1;SDS_P2;PMS_P1;PMS_P2;Temp;Humidity;BMP_temperature;BMP_pressure;BME280_temperature;BME280_humidity;BME280_pressure;Samples;Min_cycle;Max_cycle;Signal;HPM_P1;HPM_P2
2023/11/17 00:02:14;;;;;;;18.40;16.90;;;7.10;99.90;;;;;;4885960;29;20254;-40
2023/11/17 00:04:40;;;;;;;17.97;16.70;;;7.10;99.90;;;;;;4886408;29;20187;-40
2023/11/17 00:07:05;;;;;;;17.40;16.13;;;7.10;99.90;;;;;;4886413;29;20635;-40
2023/11/17 00:09:31;;;;;;;19.10;17.63;;;7.20;99.90;;;;;;4885811;29;20202;-40
2023/11/17 00:11:56;;;;;;;18.80;17.40;;;7.10;99.90;;;;;;4886388;29;20275;-41
2023/11/17 00:14:22;;;;;;;17.70;16.40;;;7.20;99.90;;;;;;4886226;29;20194;-40
2023/11/17 00:16:48;;;;;;;18.30;16.60;;;7.20;99.90;;;;;;4884672;29;20613;-40
2023/11/17 00:19:14;;;;;;;18.60;17.17;;;7.20;99.90;;;;;;4884246;29;20235;-45
2023/11/17 00:21:40;;;;;;;18.90;17.50;;;7.20;99.90;;;;;;4886392;29;20183;-39
2023/11/17 00:24:06;;;;;;;18.90;17.40;;;7.20;99.90;;;;;;4886259;29;20490;-40
2023/11/17 00:26:32;;;;;;;19.47;17.87;;;7.10;99.90;;;;;;4886494;29;20424;-43
2023/11/17 00:28:59;;;;;;;18.50;17.03;;;7.10;99.90;;;;;;4885289;29;20554;-39
2023/11/17 00:31:25;;;;;;;18.60;17.30;;;7.10;99.90;;;;;;4885686;29;20438;-40
2023/11/17 00:33:52;;;;;;;18.53;17.13;;;7.10;99.90;;;;;;4886409;29;20432;-40
2023/11/17 00:36:18;;;;;;;18.00;16.70;;;7.10;99.90;;;;;;4884896;29;20254;-39
2023/11/17 00:38:43;;;;;;;18.00;16.70;;;7.10;99.90;;;;;;4883974;29;20749;-39
2023/11/17 00:41:09;;;;;;;18.67;17.17;;;7.10;99.90;;;;;;4885921;29;20432;-39
2023/11/17 00:43:36;;;;;;;18.27;16.80;;;7.20;99.90;;;;;;4885108;29;20583;-39
2023/11/17 00:46:01;;;;;;;16.90;15.70;;;7.10;99.90;;;;;;4884310;29;20215;-40
2023/11/17 00:48:31;;;;;;;17.70;16.27;;;7.10;99.90;;;;;;4885754;29;20519;-41
2023/11/17 00:51:01;;;;;;;17.43;16.13;;;7.00;99.90;;;;;;4885491;29;20191;-47
2023/11/17 00:53:28;;;;;;;17.50;16.00;;;7.00;99.90;;;;;;4885513;29;20434;-39
2023/11/17 00:55:54;;;;;;;16.30;15.10;;;7.00;99.90;;;;;;4886084;29;21389;-39
2023/11/17 00:58:20;;;;;;;17.03;15.63;;;7.00;99.90;;;;;;4868958;29;20471;-39
2023/11/17 01:00:46;;;;;;;17.20;16.00;;;7.00;99.90;;;;;;4885640;29;20194;-42
2023/11/17 01:03:12;;;;;;;16.63;15.43;;;7.00;99.90;;;;;;4868711;29;20194;-39
2023/11/17 01:05:38;;;;;;;16.30;15.20;;;7.00;99.90;;;;;;4885226;29;20443;-39
2023/11/17 01:08:06;;;;;;;15.80;14.80;;;7.00;99.90;;;;;;4884152;29;20435;-40
2023/11/17 01:10:35;;;;;;;15.80;14.60;;;7.00;99.90;;;;;;4861338;29;20240;-40
2023/11/17 01:13:04;;;;;;;16.25;15.15;;;7.00;99.90;;;;;;4885803;29;20423;-40
2023/11/17 01:15:34;;;;;;;16.05;15.05;;;6.90;99.90;;;;;;4886292;29;20211;-39
2023/11/17 01:18:03;;;;;;;16.63;15.33;;;7.00;99.90;;;;;;4889283;29;20246;-40
2023/11/17 01:20:30;;;;;;;15.50;14.40;;;6.90;99.90;;;;;;4888895;29;20835;-41
2023/11/17 01:22:56;;;;;;;15.40;14.30;;;6.90;99.90;;;;;;4888673;29;20455;-40
2023/11/17 01:25:21;;;;;;;15.33;14.40;;;6.80;99.90;;;;;;4889716;29;20456;-40
2023/11/17 01:27:47;;;;;;;15.10;14.00;;;6.90;99.90;;;;;;4888846;29;20199;-40
2023/11/17 01:30:13;;;;;;;14.70;13.80;;;6.80;99.90;;;;;;4889313;29;20227;-40
2023/11/17 01:32:38;;;;;;;16.30;15.20;;;6.80;99.90;;;;;;4889480;29;20282;-40
2023/11/17 01:35:04;;;;;;;15.63;14.63;;;6.80;99.90;;;;;;4888974;29;20946;-40
2023/11/17 01:37:30;;;;;;;15.57;14.57;;;6.80;99.90;;;;;;4887632;29;20266;-40
2023/11/17 01:39:56;;;;;;;15.90;14.90;;;6.70;99.90;;;;;;4889224;29;20914;-40
2023/11/17 01:42:21;;;;;;;15.60;14.40;;;6.70;99.10;;;;;;4889108;29;20187;-40
2023/11/17 01:44:47;;;;;;;15.10;14.10;;;6.70;97.50;;;;;;4889015;29;20187;-42
2023/11/17 01:47:14;;;;;;;15.67;14.57;;;6.70;91.80;;;;;;4887356;29;20206;-40
2023/11/17 01:49:41;;;;;;;15.40;14.40;;;6.60;87.80;;;;;;4887575;29;20517;-41
2023/11/17 01:52:07;;;;;;;15.68;14.65;;;6.60;90.60;;;;;;4888825;29;20420;-40
2023/11/17 01:54:35;;;;;;;15.77;14.73;;;6.50;86.70;;;;;;4889029;29;20194;-40
2023/11/17 01:57:01;;;;;;;15.98;14.88;;;6.40;93.40;;;;;;4888591;29;20411;-40
2023/11/17 01:59:27;;;;;;;14.90;13.90;;;6.30;96.20;;;;;;4888606;29;20179;-39
2023/11/17 02:01:53;;;;;;;14.77;13.77;;;6.20;99.90;;;;;;4888627;29;20669;-41
2023/11/17 02:04:18;;;;;;;15.27;14.27;;;6.20;99.90;;;;;;4887677;29;20201;-40
2023/11/17 02:07:05;;;;;;;15.40;14.40;;;6.20;99.90;;;;;;4887798;29;20186;-39
2023/11/17 02:09:47;;;;;;;15.68;14.63;;;6.10;99.90;;;;;;4888524;29;20175;-40
2023/11/17 02:12:15;;;;;;;15.13;14.20;;;6.10;99.90;;;;;;4888547;29;20237;-39
2023/11/17 02:14:46;;;;;;;14.63;13.73;;;6.00;99.90;;;;;;4888719;29;21260;-39
2023/11/17 02:17:15;;;;;;;15.75;14.65;;;5.90;99.90;;;;;;4868575;29;20242;-39
2023/11/17 02:19:45;;;;;;;14.52;13.63;;;6.00;99.90;;;;;;4886532;29;20184;-39
2023/11/17 02:22:19;;;;;;;15.40;14.10;;;5.90;99.90;;;;;;4888724;29;20206;-37
2023/11/17 02:25:10;;;;;;;14.77;13.82;;;5.90;99.90;;;;;;4887994;29;20214;-41
2023/11/17 02:27:45;;;;;;;15.10;14.07;;;5.80;99.90;;;;;;4887981;29;20187;-39
2023/11/17 02:30:19;;;;;;;15.93;14.77;;;5.80;99.90;;;;;;4886723;29;20273;-39
2023/11/17 02:32:49;;;;;;;15.13;13.93;;;5.80;99.90;;;;;;4887490;29;20191;-40
2023/11/17 02:35:16;;;;;;;15.13;14.02;;;5.70;99.90;;;;;;4888239;29;21271;-39
2023/11/17 02:37:43;;;;;;;15.10;14.10;;;5.70;99.90;;;;;;4887598;29;20302;-40
2023/11/17 02:40:18;;;;;;;15.13;14.13;;;5.60;99.90;;;;;;4887973;29;20193;-40
2023/11/17 02:42:48;;;;;;;15.43;14.35;;;5.60;99.90;;;;;;4885676;29;20186;-39
2023/11/17 02:45:19;;;;;;;15.23;14.15;;;5.50;99.90;;;;;;4886665;29;20196;-44
2023/11/17 02:47:46;;;;;;;15.30;14.20;;;5.50;99.90;;;;;;4887144;29;20190;-39
2023/11/17 02:50:18;;;;;;;15.45;14.45;;;5.50;99.90;;;;;;4887754;29;20213;-39
2023/11/17 02:53:00;;;;;;;15.63;14.15;;;5.50;99.90;;;;;;4888027;29;20191;-39
2023/11/17 02:55:28;;;;;;;15.35;14.40;;;5.40;99.90;;;;;;4865003;29;20577;-39
2023/11/17 02:57:56;;;;;;;15.25;14.15;;;5.40;99.90;;;;;;4886778;29;20203;-40
2023/11/17 03:00:23;;;;;;;15.02;14.02;;;5.40;99.90;;;;;;4867384;29;20326;-40
2023/11/17 03:02:50;;;;;;;14.48;13.48;;;5.40;99.90;;;;;;4887875;29;20218;-40
2023/11/17 03:05:16;;;;;;;15.88;14.75;;;5.30;99.90;;;;;;4887351;29;20183;-40
2023/11/17 03:07:44;;;;;;;15.57;14.47;;;5.30;99.90;;;;;;4887645;29;20213;-40
2023/11/17 03:10:11;;;;;;;15.35;14.35;;;5.30;99.90;;;;;;4886588;29;20477;-40
2023/11/17 03:12:37;;;;;;;15.20;14.13;;;5.30;99.90;;;;;;4885449;29;20353;-40
2023/11/17 03:15:04;;;;;;;15.13;14.03;;;5.20;99.90;;;;;;4887283;29;20187;-40
2023/11/17 03:17:30;;;;;;;14.63;13.73;;;5.30;99.90;;;;;;4886459;29;20286;-40
2023/11/17 03:19:56;;;;;;;16.00;14.80;;;5.20;99.90;;;;;;4887654;29;20231;-41
2023/11/17 03:22:21;;;;;;;15.93;14.83;;;5.20;99.90;;;;;;4887229;29;20570;-40
2023/11/17 03:24:47;;;;;;;15.80;14.70;;;5.20;99.90;;;;;;4887552;29;20184;-40
2023/11/17 03:27:14;;;;;;;15.73;14.70;;;5.20;99.90;;;;;;4886621;29;20605;-40
2023/11/17 03:29:40;;;;;;;15.90;14.70;;;5.20;99.90;;;;;;4886943;29;20215;-40
2023/11/17 03:32:07;;;;;;;16.20;14.90;;;5.10;99.90;;;;;;4887050;29;20274;-46
2023/11/17 03:34:33;;;;;;;16.23;15.02;;;5.10;99.90;;;;;;4866863;29;20439;-38
2023/11/17 03:37:03;;;;;;;15.77;14.57;;;5.10;99.90;;;;;;4885980;29;20737;-46
2023/11/17 03:39:43;;;;;;;16.48;14.95;;;5.00;99.90;;;;;;4886092;29;20510;-39
2023/11/17 03:42:18;;;;;;;16.10;14.90;;;5.00;99.90;;;;;;4885676;29;20186;-38
2023/11/17 03:44:44;;;;;;;17.05;15.65;;;4.90;99.90;;;;;;4886856;29;20194;-39
2023/11/17 03:47:12;;;;;;;15.40;14.30;;;4.90;99.90;;;;;;4886708;29;20194;-39
2023/11/17 03:49:37;;;;;;;15.35;14.25;;;4.90;99.90;;;;;;4886645;29;20422;-39
2023/11/17 03:52:04;;;;;;;16.70;15.40;;;4.80;99.90;;;;;;4886415;29;20197;-39
2023/11/17 03:54:30;;;;;;;15.20;13.95;;;4.80;99.90;;;;;;4886527;29;20302;-40
2023/11/17 03:56:56;;;;;;;15.70;14.40;;;4.80;99.90;;;;;;4886194;29;20258;-39
2023/11/17 03:59:24;;;;;;;15.70;14.45;;;4.80;99.90;;;;;;4886624;29;20238;-39
2023/11/17 04:01:50;;;;;;;15.77;14.52;;;4.80;99.90;;;;;;4886598;29;20214;-40
2023/11/17 04:04:17;;;;;;;16.23;14.95;;;4.90;99.90;;;;;;4886358;29;20194;-40
2023/11/17 04:06:51;;;;;;;15.80;14.60;;;4.90;99.90;;;;;;4886288;29;20194;-40
2023/11/17 04:09:21;;;;;;;16.48;14.88;;;4.90;99.90;;;;;;4886743;29;20257;-41
2023/11/17 04:11:47;;;;;;;15.35;14.15;;;5.00;99.90;;;;;;4885790;29;20273;-40
2023/11/17 04:14:14;;;;;;;16.55;15.25;;;5.00;99.90;;;;;;4886315;29;20191;-39
2023/11/17 04:16:39;;;;;;;16.40;15.20;;;5.10;99.90;;;;;;4886737;29;20194;-43
2023/11/17 04:19:05;;;;;;;16.63;15.37;;;5.10;99.90;;;;;;4884895;29;20243;-40
2023/11/17 04:21:33;;;;;;;17.38;15.88;;;5.10;99.90;;;;;;4886508;29;20416;-40
2023/11/17 04:23:58;;;;;;;16.55;15.25;;;5.10;99.90;;;;;;4885611;29;20613;-44
2023/11/17 04:26:24;;;;;;;16.57;15.23;;;5.10;98.10;;;;;;4885632;29;20202;-40
2023/11/17 04:28:50;;;;;;;16.80;15.40;;;5.10;81.20;;;;;;4886102;29;20223;-40
2023/11/17 04:31:15;;;;;;;16.07;14.77;;;5.10;52.70;;;;;;4886128;29;20195;-40
2023/11/17 04:33:41;;;;;;;16.67;15.23;;;5.20;63.30;;;;;;4885808;29;21185;-40
2023/11/17 04:36:11;;;;;;;16.83;15.50;;;5.10;35.20;;;;;;4885027;29;21283;-40
2023/11/17 04:38:39;;;;;;;16.90;15.63;;;5.10;14.00;;;;;;4886051;29;20206;-39
2023/11/17 04:41:05;;;;;;;16.55;15.25;;;5.10;7.60;;;;;;4884424;29;20647;-40
2023/11/17 04:43:32;;;;;;;17.40;16.00;;;5.00;1.00;;;;;;4885966;29;21269;-39
2023/11/17 04:45:57;;;;;;;16.58;14.98;;;5.10;1.00;;;;;;4885750;29;20216;-39
2023/11/17 04:48:23;;;;;;;16.97;15.57;;;5.10;2.50;;;;;;4885236;29;20194;-39
2023/11/17 04:50:49;;;;;;;17.50;15.95;;;5.10;1.00;;;;;;4884722;29;20198;-39
2023/11/17 04:53:14;;;;;;;18.33;16.73;;;5.10;4.40;;;;;;4885636;29;20191;-39
2023/11/17 04:55:44;;;;;;;17.60;16.17;;;5.10;1.00;;;;;;4885954;29;20275;-39
2023/11/17 04:58:13;;;;;;;16.98;15.57;;;5.10;2.70;;;;;;4885121;29;20246;-40
2023/11/17 05:00:40;;;;;;;16.70;15.40;;;5.10;1.00;;;;;;4885259;29;20300;-39
2023/11/17 05:03:06;;;;;;;17.00;15.60;;;5.10;1.00;;;;;;4885620;29;20189;-40
2023/11/17 05:05:32;;;;;;;16.33;15.17;;;4.90;1.00;;;;;;4883892;29;20547;-39
2023/11/17 05:07:59;;;;;;;16.45;15.25;;;4.90;1.00;;;;;;4884049;29;20190;-39
2023/11/17 05:10:26;;;;;;;16.00;14.80;;;4.80;1.00;;;;;;4882159;29;20206;-39
2023/11/17 05:12:52;;;;;;;16.35;15.18;;;4.70;1.00;;;;;;4877069;29;20443;-39
2023/11/17 05:15:20;;;;;;;15.00;13.80;;;4.70;1.00;;;;;;4884914;29;20190;-39
2023/11/17 05:17:49;;;;;;;15.70;14.60;;;4.60;1.00;;;;;;4884294;29;20241;-41
2023/11/17 05:20:20;;;;;;;16.73;15.43;;;4.60;1.00;;;;;;4883839;29;20253;-40
2023/11/17 05:22:47;;;;;;;17.58;16.27;;;4.60;1.00;;;;;;4882369;29;20257;-40
2023/11/17 05:25:14;;;;;;;16.63;15.23;;;4.60;1.00;;;;;;4881851;29;20178;-41
2023/11/17 05:27:41;;;;;;;16.17;14.88;;;4.60;1.00;;;;;;4883401;29;20201;-40
2023/11/17 05:30:08;;;;;;;18.00;16.42;;;4.70;1.00;;;;;;4880295;29;20222;-40
2023/11/17 05:32:35;;;;;;;16.83;15.48;;;4.70;1.00;;;;;;4867147;29;20199;-40
2023/11/17 05:35:01;;;;;;;18.73;17.15;;;4.70;1.00;;;;;;4884617;29;20612;-40
2023/11/17 05:37:27;;;;;;;16.70;15.50;;;4.70;1.00;;;;;;4884963;29;20198;-42
2023/11/17 05:39:53;;;;;;;17.00;15.60;;;4.70;1.00;;;;;;4884541;29;20198;-39
2023/11/17 05:42:19;;;;;;;17.40;16.00;;;4.60;1.00;;;;;;4884035;29;20588;-39
2023/11/17 05:44:45;;;;;;;17.33;15.90;;;4.60;1.00;;;;;;4885348;29;20209;-39
2023/11/17 05:47:10;;;;;;;17.37;15.93;;;4.60;1.00;;;;;;4884812;29;20231;-38
2023/11/17 05:49:41;;;;;;;17.10;15.60;;;4.60;1.00;;;;;;4885222;29;20183;-39
2023/11/17 05:52:07;;;;;;;18.63;16.85;;;4.60;1.00;;;;;;4885318;29;20710;-40
2023/11/17 05:54:33;;;;;;;17.20;15.85;;;4.60;1.00;;;;;;4885546;29;20396;-40
2023/11/17 05:56:59;;;;;;;16.65;15.43;;;4.60;1.00;;;;;;4885046;29;20312;-39
2023/11/17 05:59:25;;;;;;;18.07;16.47;;;4.60;1.00;;;;;;4884095;29;20238;-40
2023/11/17 06:01:51;;;;;;;16.40;15.10;;;4.60;1.00;;;;;;4886788;29;20254;-39
2023/11/17 06:04:16;;;;;;;16.85;15.57;;;4.50;1.00;;;;;;4888997;29;20191;-40
2023/11/17 06:06:42;;;;;;;16.67;15.40;;;4.50;1.00;;;;;;4888551;29;20205;-39
2023/11/17 06:09:12;;;;;;;16.73;15.43;;;4.50;1.00;;;;;;4888546;29;21047;-39
2023/11/17 06:11:39;;;;;;;16.52;15.32;;;4.40;1.00;;;;;;4888343;29;20178;-39
2023/11/17 06:14:06;;;;;;;16.60;15.10;;;4.40;1.00;;;;;;4888662;29;20222;-39
2023/11/17 06:16:33;;;;;;;16.85;15.35;;;4.40;1.00;;;;;;4864468;29;20245;-39
2023/11/17 06:19:04;;;;;;;17.13;15.85;;;4.40;1.00;;;;;;4888174;29;20353;-38
2023/11/17 06:21:32;;;;;;;16.95;15.63;;;4.40;1.00;;;;;;4888651;29;20191;-39
2023/11/17 06:23:57;;;;;;;17.25;15.88;;;4.50;1.00;;;;;;4888324;29;20183;-40
2023/11/17 06:26:23;;;;;;;16.57;15.30;;;4.50;1.00;;;;;;4888247;29;20214;-40
2023/11/17 06:28:49;;;;;;;16.20;15.00;;;4.50;1.00;;;;;;4886333;29;21851;-39
2023/11/17 06:31:14;;;;;;;16.10;14.77;;;4.50;1.00;;;;;;4887930;29;20644;-38
2023/11/17 06:33:40;;;;;;;16.67;15.27;;;4.40;1.00;;;;;;4886829;29;20193;-39
2023/11/17 06:36:08;;;;;;;17.42;16.00;;;4.40;1.00;;;;;;4886718;29;20335;-40
2023/11/17 06:38:35;;;;;;;17.40;16.00;;;4.40;1.00;;;;;;4887339;29;20203;-40
2023/11/17 06:41:01;;;;;;;17.08;15.68;;;4.50;1.00;;;;;;4886946;29;20183;-39
2023/11/17 06:43:29;;;;;;;17.30;15.63;;;4.40;1.00;;;;;;4886670;29;20284;-39
2023/11/17 06:45:55;;;;;;;17.45;16.10;;;4.50;1.00;;;;;;4887172;29;20194;-39
2023/11/17 06:48:23;;;;;;;18.53;17.03;;;4.50;1.00;;;;;;4886663;29;20225;-39
2023/11/17 06:50:49;;;;;;;18.75;17.20;;;4.40;1.00;;;;;;4869795;29;20483;-40
2023/11/17 06:53:14;;;;;;;17.77;16.37;;;4.40;1.00;;;;;;4886424;29;20190;-42
2023/11/17 06:55:41;;;;;;;17.90;16.40;;;4.40;1.00;;;;;;4886495;29;20510;-39
2023/11/17 06:58:06;;;;;;;17.67;16.15;;;4.50;1.00;;;;;;4886702;29;20187;-40
2023/11/17 07:00:36;;;;;;;18.40;16.90;;;4.40;1.00;;;;;;4886410;29;20250;-39
2023/11/17 07:03:02;;;;;;;18.45;16.95;;;4.50;1.00;;;;;;4879160;29;20190;-42
2023/11/17 07:05:29;;;;;;;18.15;16.65;;;4.40;1.00;;;;;;4885552;29;20532;-40
2023/11/17 07:07:57;;;;;;;17.80;16.40;;;4.40;1.00;;;;;;4886417;29;20211;-39
2023/11/17 07:10:26;;;;;;;18.10;16.80;;;4.40;1.00;;;;;;4869324;29;20197;-40
2023/11/17 07:12:52;;;;;;;18.17;16.67;;;4.40;1.00;;;;;;4885991;29;20193;-41
2023/11/17 07:15:22;;;;;;;18.98;17.42;;;4.40;1.00;;;;;;4887038;29;20546;-42
2023/11/17 07:17:48;;;;;;;17.98;16.58;;;4.40;1.00;;;;;;4886737;29;20241;-39
2023/11/17 07:20:14;;;;;;;18.47;16.93;;;4.40;1.00;;;;;;4886579;29;20195;-39
2023/11/17 07:22:41;;;;;;;19.23;17.35;;;4.40;1.00;;;;;;4886236;29;20431;-39
2023/11/17 07:25:10;;;;;;;18.73;17.23;;;4.40;1.00;;;;;;4886938;29;20194;-40
2023/11/17 07:27:39;;;;;;;18.35;16.85;;;4.50;1.00;;;;;;4886941;29;20208;-39
2023/11/17 07:30:13;;;;;;;18.30;16.83;;;4.40;1.00;;;;;;4869496;29;20545;-39
2023/11/17 07:32:44;;;;;;;18.90;17.27;;;4.50;1.00;;;;;;4886318;29;20347;-39
2023/11/17 07:35:11;;;;;;;18.33;16.83;;;4.50;1.00;;;;;;4884444;29;20187;-39
2023/11/17 07:37:37;;;;;;;18.80;17.23;;;4.60;1.00;;;;;;4885018;29;20199;-39
2023/11/17 07:40:06;;;;;;;19.02;17.50;;;4.60;1.00;;;;;;4885856;29;20554;-39
2023/11/17 07:42:33;;;;;;;19.80;18.13;;;4.60;1.00;;;;;;4885624;29;20191;-39
2023/11/17 07:44:59;;;;;;;19.80;18.10;;;4.60;1.00;;;;;;4884773;29;20205;-39
2023/11/17 07:47:24;;;;;;;18.13;16.73;;;4.60;1.00;;;;;;4886409;29;20626;-39
2023/11/17 07:49:54;;;;;;;18.03;16.60;;;4.60;1.00;;;;;;4886672;29;20430;-39
2023/11/17 07:52:23;;;;;;;17.95;16.45;;;4.70;1.00;;;;;;4885389;29;20542;-42
2023/11/17 07:54:49;;;;;;;17.25;15.95;;;4.80;1.00;;;;;;4886062;29;20190;-41
2023/11/17 07:57:15;;;;;;;20.15;18.35;;;4.80;1.00;;;;;;4887100;29;20190;-39
2023/11/17 07:59:41;;;;;;;17.75;16.17;;;4.80;1.00;;;;;;4886379;29;20515;-39
2023/11/17 08:02:08;;;;;;;17.60;16.10;;;4.70;1.00;;;;;;4886287;29;20193;-39
2023/11/17 08:04:33;;;;;;;18.08;16.50;;;4.70;1.00;;;;;;4886624;29;20425;-39
2023/11/17 08:07:01;;;;;;;18.10;16.60;;;4.60;1.00;;;;;;4883589;29;20657;-39
2023/11/17 08:09:28;;;;;;;17.90;16.50;;;4.70;1.00;;;;;;4885529;29;20201;-40
2023/11/17 08:11:53;;;;;;;18.65;17.05;;;4.60;1.00;;;;;;4885474;29;20193;-39
2023/11/17 08:14:19;;;;;;;18.03;16.53;;;4.70;1.00;;;;;;4860343;29;20206;-39
2023/11/17 08:16:45;;;;;;;17.20;15.50;;;4.60;1.00;;;;;;4880779;29;20604;-40
2023/11/17 08:19:11;;;;;;;18.37;16.87;;;4.60;1.00;;;;;;4884776;29;20226;-56
2023/11/17 08:21:38;;;;;;;16.80;15.40;;;4.60;1.00;;;;;;4886166;29;20411;-54
2023/11/17 08:24:04;;;;;;;18.35;16.83;;;4.70;1.00;;;;;;4868339;29;20435;-54
2023/11/17 08:26:33;;;;;;;17.83;16.42;;;4.70;1.00;;;;;;4884893;29;20197;-54
2023/11/17 08:28:59;;;;;;;17.48;16.20;;;4.60;1.00;;;;;;4885373;29;20244;-38
2023/11/17 08:31:26;;;;;;;18.13;16.77;;;4.70;1.00;;;;;;4884643;29;20295;-39
2023/11/17 08:33:52;;;;;;;16.73;15.52;;;4.70;1.00;;;;;;4883938;29;20976;-39
2023/11/17 08:36:19;;;;;;;16.70;15.50;;;4.80;1.00;;;;;;4867012;29;20197;-39
2023/11/17 08:38:45;;;;;;;15.93;14.73;;;4.80;1.00;;;;;;4884607;29;20194;-40
2023/11/17 08:41:11;;;;;;;16.83;15.50;;;4.80;1.00;;;;;;4883415;29;20207;-39
2023/11/17 08:43:40;;;;;;;17.20;15.87;;;4.80;1.00;;;;;;4884274;29;20273;-40
2023/11/17 08:46:06;;;;;;;16.80;15.60;;;4.80;1.00;;;;;;4884117;29;20843;-39
2023/11/17 08:48:38;;;;;;;16.02;14.82;;;4.90;1.00;;;;;;4884927;29;20917;-40
2023/11/17 08:51:04;;;;;;;16.00;14.80;;;4.90;1.00;;;;;;4885488;29;21029;-39
2023/11/17 08:53:30;;;;;;;16.87;15.37;;;4.90;1.00;;;;;;4883381;29;20193;-40
2023/11/17 08:55:56;;;;;;;16.15;14.95;;;4.90;1.00;;;;;;4884012;29;20467;-40
2023/11/17 08:58:22;;;;;;;17.63;16.15;;;4.90;1.00;;;;;;4881386;29;20194;-43
2023/11/17 09:00:50;;;;;;;17.30;15.82;;;5.00;1.00;;;;;;4877726;29;20202;-40
2023/11/17 09:03:16;;;;;;;16.30;15.10;;;4.90;1.00;;;;;;4883983;29;20550;-40
2023/11/17 09:05:42;;;;;;;16.83;15.40;;;4.90;1.00;;;;;;4882117;29;20486;-39
2023/11/17 09:08:07;;;;;;;15.60;14.40;;;4.90;1.00;;;;;;4883203;29;20223;-44
2023/11/17 09:10:34;;;;;;;17.67;15.97;;;4.90;1.00;;;;;;4882941;29;20198;-39
2023/11/17 09:13:00;;;;;;;16.42;15.13;;;4.90;1.00;;;;;;4883844;29;20261;-40
2023/11/17 09:15:27;;;;;;;16.93;15.60;;;4.90;1.00;;;;;;4884649;29;20190;-40
2023/11/17 09:17:53;;;;;;;16.00;14.70;;;4.90;1.00;;;;;;4881656;29;20594;-39
2023/11/17 09:20:24;;;;;;;16.95;15.50;;;4.80;1.00;;;;;;4877005;29;20226;-41
2023/11/17 09:22:50;;;;;;;15.57;14.45;;;4.80;1.00;;;;;;4881347;29;20718;-39
2023/11/17 09:25:18;;;;;;;14.88;13.77;;;4.90;1.00;;;;;;4880726;29;20282;-41
2023/11/17 09:27:44;;;;;;;15.40;14.30;;;5.00;1.00;;;;;;4881937;29;20220;-41
2023/11/17 09:30:14;;;;;;;15.60;14.40;;;4.90;1.00;;;;;;4873506;29;20476;-40
2023/11/17 09:32:52;;;;;;;14.82;13.73;;;4.90;1.00;;;;;;4882242;29;20684;-40
2023/11/17 09:35:21;;;;;;;16.77;15.57;;;4.90;1.00;;;;;;4878763;29;20178;-41
2023/11/17 09:37:50;;;;;;;15.98;14.82;;;4.90;1.00;;;;;;4875877;29;20187;-53
2023/11/17 09:40:21;;;;;;;15.88;14.52;;;4.80;1.00;;;;;;4881217;29;20273;-60
2023/11/17 09:42:55;;;;;;;16.75;15.45;;;4.90;1.00;;;;;;4882726;29;20252;-53
2023/11/17 09:45:30;;;;;;;16.45;15.30;;;4.70;1.00;;;;;;4882248;29;20181;-57
2023/11/17 09:48:01;;;;;;;17.35;15.95;;;4.70;1.00;;;;;;4886907;29;20218;-49
2023/11/17 09:50:28;;;;;;;15.73;14.63;;;4.70;1.00;;;;;;4883782;29;20189;-61
2023/11/17 09:52:54;;;;;;;17.27;15.85;;;4.80;1.00;;;;;;4887535;29;20625;-54
2023/11/17 09:55:27;;;;;;;18.20;16.80;;;4.80;1.00;;;;;;4885594;29;21236;-55
2023/11/17 09:57:55;;;;;;;17.98;16.40;;;4.70;1.00;;;;;;4869988;29;20252;-54
2023/11/17 10:00:25;;;;;;;18.40;16.98;;;4.80;1.00;;;;;;4875106;29;20193;-55
2023/11/17 10:02:54;;;;;;;16.25;15.00;;;4.70;1.00;;;;;;4881104;29;20254;-57
2023/11/17 10:05:24;;;;;;;16.83;15.45;;;4.70;1.00;;;;;;4873597;29;20598;-55
2023/11/17 10:08:02;;;;;;;17.30;15.98;;;4.70;1.00;;;;;;4879149;29;20665;-56
2023/11/17 10:10:27;;;;;;;17.45;16.05;;;4.70;1.00;;;;;;4871159;29;20222;-54
2023/11/17 10:12:58;;;;;;;15.73;14.63;;;4.80;1.00;;;;;;4885672;29;20291;-50
2023/11/17 10:15:28;;;;;;;16.23;15.23;;;4.80;1.00;;;;;;4879391;29;20536;-53
2023/11/17 10:18:01;;;;;;;16.10;14.80;;;4.80;1.00;;;;;;4886594;29;20302;-55
2023/11/17 10:20:28;;;;;;;16.55;15.45;;;4.80;1.00;;;;;;4882071;29;20217;-56
2023/11/17 10:22:54;;;;;;;16.67;15.48;;;4.80;1.00;;;;;;4872523;29;20204;-53
2023/11/17 10:25:21;;;;;;;15.65;14.65;;;4.90;1.00;;;;;;4880805;29;20199;-54
2023/11/17 10:27:51;;;;;;;17.15;15.95;;;4.90;1.00;;;;;;4886472;29;20213;-56
2023/11/17 10:30:17;;;;;;;16.25;15.05;;;4.90;1.00;;;;;;4885582;29;20601;-52
2023/11/17 10:32:53;;;;;;;15.52;14.52;;;4.90;1.00;;;;;;4886519;29;20245;-51
2023/11/17 10:35:25;;;;;;;16.10;15.07;;;4.80;1.00;;;;;;4884597;29;20827;-50
2023/11/17 10:37:55;;;;;;;15.88;14.80;;;4.80;1.00;;;;;;4886180;29;20261;-55
2023/11/17 10:40:25;;;;;;;15.30;14.30;;;4.90;1.00;;;;;;4876169;29;20656;-55
2023/11/17 10:43:14;;;;;;;15.80;14.70;;;4.90;1.00;;;;;;4885094;29;20270;-55
2023/11/17 10:45:41;;;;;;;16.23;14.93;;;4.90;1.00;;;;;;4879546;29;20700;-55
2023/11/17 10:48:08;;;;;;;15.52;14.43;;;5.00;1.00;;;;;;4885659;29;21136;-54
2023/11/17 10:50:35;;;;;;;14.80;13.80;;;5.00;1.00;;;;;;4875716;29;20878;-46
2023/11/17 10:53:20;;;;;;;14.90;13.80;;;4.90;1.00;;;;;;4878460;29;20230;-56
2023/11/17 10:55:48;;;;;;;15.05;13.98;;;5.00;1.00;;;;;;4877775;29;20635;-54
2023/11/17 10:58:15;;;;;;;14.70;13.70;;;5.10;1.00;;;;;;4886209;29;20182;-60
2023/11/17 11:00:45;;;;;;;14.07;12.90;;;5.10;1.00;;;;;;4880394;29;20534;-57
2023/11/17 11:03:13;;;;;;;15.40;14.40;;;5.10;1.00;;;;;;4885357;29;20213;-49
2023/11/17 11:05:41;;;;;;;13.23;12.32;;;5.10;1.00;;;;;;4882079;29;20202;-49
2023/11/17 11:08:18;;;;;;;14.63;13.63;;;5.20;1.00;;;;;;4881933;29;20700;-55
2023/11/17 11:10:54;;;;;;;14.82;13.80;;;5.10;1.00;;;;;;4877223;29;20602;-54
2023/11/17 11:13:28;;;;;;;13.63;12.80;;;5.10;1.00;;;;;;4885083;29;20182;-57
2023/11/17 11:16:08;;;;;;;15.75;14.70;;;5.20;1.00;;;;;;4884273;29;20487;-51
2023/11/17 11:18:45;;;;;;;13.65;12.85;;;5.20;1.00;;;;;;4885362;29;20265;-56
2023/11/17 11:21:19;;;;;;;13.82;12.90;;;5.20;1.00;;;;;;4884730;29;20198;-53
2023/11/17 11:23:45;;;;;;;13.80;13.00;;;5.30;1.00;;;;;;4885589;29;20682;-54
2023/11/17 11:26:13;;;;;;;14.80;13.80;;;5.40;1.00;;;;;;4883351;29;20194;-54
2023/11/17 11:28:41;;;;;;;13.98;13.13;;;5.40;1.00;;;;;;4884993;29;20269;-51
2023/11/17 11:31:09;;;;;;;13.40;12.60;;;5.50;1.00;;;;;;4885920;29;20191;-51
2023/11/17 11:33:36;;;;;;;14.27;13.38;;;5.50;1.00;;;;;;4885903;29;20576;-53
2023/11/17 11:36:01;;;;;;;13.90;13.10;;;5.50;1.00;;;;;;4886047;29;20269;-54
2023/11/17 11:38:28;;;;;;;14.00;13.20;;;5.50;1.00;;;;;;4885260;29;20789;-55
2023/11/17 11:40:55;;;;;;;15.25;14.35;;;5.50;1.00;;;;;;4866458;29;21263;-53
2023/11/17 11:43:21;;;;;;;14.07;13.07;;;5.50;1.00;;;;;;4886203;29;20195;-53
2023/11/17 11:45:51;;;;;;;15.20;14.20;;;5.60;1.00;;;;;;4885480;29;20187;-53
2023/11/17 11:48:20;;;;;;;14.75;13.88;;;5.60;1.00;;;;;;4885674;29;20247;-55
2023/11/17 11:50:54;;;;;;;14.35;13.35;;;5.70;1.00;;;;;;4884931;29;20294;-54
2023/11/17 11:53:32;;;;;;;14.13;13.32;;;5.60;1.00;;;;;;4885537;29;20543;-56
2023/11/17 11:56:14;;;;;;;14.13;13.27;;;5.70;1.00;;;;;;4885303;29;20195;-54
2023/11/17 11:58:45;;;;;;;14.30;13.50;;;5.80;1.00;;;;;;4882184;29;20358;-54
2023/11/17 12:01:16;;;;;;;14.40;13.60;;;5.80;1.00;;;;;;4883858;29;20338;-53
2023/11/17 12:03:45;;;;;;;13.80;12.98;;;5.70;1.00;;;;;;4885237;29;20179;-53
2023/11/17 12:06:26;;;;;;;13.68;12.80;;;5.70;1.00;;;;;;4884442;29;20209;-54
2023/11/17 12:08:59;;;;;;;14.10;13.35;;;5.80;1.00;;;;;;4863130;29;20211;-53
2023/11/17 12:11:39;;;;;;;13.55;12.75;;;5.80;1.00;;;;;;4861271;29;20188;-51
2023/11/17 12:14:09;;;;;;;12.95;12.35;;;5.90;1.00;;;;;;4873023;29;20615;-56
2023/11/17 12:16:57;;;;;;;13.00;12.30;;;6.00;1.00;;;;;;4883326;29;20676;-56
2023/11/17 12:19:30;;;;;;;12.77;11.95;;;6.00;1.00;;;;;;4879541;29;20299;-56
2023/11/17 12:22:03;;;;;;;12.50;11.80;;;6.00;1.00;;;;;;4884318;29;20630;-54
2023/11/17 12:24:30;;;;;;;13.02;12.32;;;6.00;1.00;;;;;;4884673;29;20258;-55
2023/11/17 12:26:56;;;;;;;13.00;12.20;;;6.10;1.00;;;;;;4885921;29;20203;-54
2023/11/17 12:29:24;;;;;;;12.97;12.30;;;6.20;1.00;;;;;;4880013;29;20230;-53
2023/11/17 12:31:51;;;;;;;12.55;11.85;;;6.10;1.00;;;;;;4885544;29;20428;-57
2023/11/17 12:34:17;;;;;;;12.82;12.15;;;6.10;1.00;;;;;;4885480;29;20209;-54
2023/11/17 12:36:45;;;;;;;13.30;12.50;;;6.20;1.00;;;;;;4885577;29;20183;-55
2023/11/17 12:39:12;;;;;;;13.00;12.30;;;6.20;1.00;;;;;;4879484;29;20262;-55
2023/11/17 12:41:38;;;;;;;12.50;11.80;;;6.20;1.00;;;;;;4880877;29;20211;-54
2023/11/17 12:44:05;;;;;;;12.07;11.40;;;6.20;1.00;;;;;;4885611;29;20202;-54
2023/11/17 12:46:31;;;;;;;12.32;11.73;;;6.30;1.00;;;;;;4881107;29;20812;-56
2023/11/17 12:48:58;;;;;;;13.38;12.57;;;6.40;1.00;;;;;;4881752;29;20625;-56